createdAt,value
2017-12-21T00:01:46.201Z,15.23
2017-12-21T00:06:47.800Z,16.87
2017-12-21T00:11:49.374Z,16.70
2017-12-21T00:16:51.645Z,16.37
2017-12-21T00:21:53.198Z,17.33
2017-12-21T00:26:54.760Z,17.03
2017-12-21T00:31:56.270Z,15.67
2017-12-21T00:36:58.554Z,15.33
2017-12-21T00:42:00.867Z,16.10
2017-12-21T00:47:02.402Z,16.90
2017-12-21T00:52:04.676Z,15.40
2017-12-21T00:57:06.212Z,16.77
2017-12-21T01:02:07.706Z,14.70
2017-12-21T01:07:09.349Z,16.77
2017-12-21T01:12:10.869Z,14.10
2017-12-21T01:17:12.440Z,16.10
2017-12-21T01:22:13.936Z,16.27
2017-12-21T01:27:15.477Z,17.17
2017-12-21T01:32:17.021Z,16.60
2017-12-21T01:37:19.284Z,15.70
2017-12-21T01:42:20.802Z,14.30
2017-12-21T01:47:22.317Z,14.67
2017-12-21T01:52:23.890Z,15.60
2017-12-21T01:57:25.420Z,16.10
2017-12-21T02:02:26.956Z,15.90
2017-12-21T02:07:29.256Z,15.27
2017-12-21T02:12:30.781Z,13.53
2017-12-21T02:17:32.284Z,15.63
2017-12-21T02:22:33.806Z,17.03
2017-12-21T02:27:35.384Z,18.23
2017-12-21T02:32:36.869Z,16.10
2017-12-21T02:37:39.165Z,17.00
2017-12-21T02:42:40.725Z,17.03
2017-12-21T02:47:42.944Z,18.50
2017-12-21T02:52:44.463Z,19.60
2017-12-21T02:57:46.738Z,18.57
2017-12-21T03:02:48.332Z,18.27
2017-12-21T03:07:49.889Z,21.07
2017-12-21T03:12:52.129Z,19.00
2017-12-21T03:17:53.653Z,20.73
2017-12-21T03:22:55.900Z,20.40
2017-12-21T03:27:57.483Z,20.30
2017-12-21T03:32:59.719Z,19.30
2017-12-21T03:38:01.229Z,21.23
2017-12-21T03:43:02.782Z,18.63
2017-12-21T03:48:04.299Z,18.37
2017-12-21T03:53:05.785Z,19.00
2017-12-21T03:58:07.347Z,18.83
2017-12-21T04:03:08.925Z,16.73
2017-12-21T04:08:10.442Z,16.20
2017-12-21T04:13:12.680Z,18.30
2017-12-21T04:18:14.192Z,17.67
2017-12-21T04:23:16.415Z,18.73
2017-12-21T04:28:17.862Z,18.40
2017-12-21T04:33:19.355Z,18.37
2017-12-21T04:38:20.828Z,18.27
2017-12-21T04:43:22.298Z,18.53
2017-12-21T04:48:23.777Z,19.07
2017-12-21T04:53:25.216Z,19.40
2017-12-21T04:58:26.772Z,19.47
2017-12-21T05:03:28.289Z,19.03
2017-12-21T05:08:29.841Z,20.33
2017-12-21T05:13:31.364Z,18.90
2017-12-21T05:18:32.896Z,19.60
2017-12-21T05:23:34.414Z,18.87
2017-12-21T05:28:35.941Z,16.93
2017-12-21T05:33:38.262Z,18.70
2017-12-21T05:38:39.789Z,17.90
2017-12-21T05:43:41.321Z,18.20
2017-12-21T05:48:42.812Z,19.20
2017-12-21T05:53:44.345Z,17.53
2017-12-21T05:58:45.825Z,18.27
2017-12-21T06:03:47.397Z,17.50
2017-12-21T06:08:48.941Z,16.33
2017-12-21T06:13:50.439Z,16.57
2017-12-21T06:18:51.930Z,17.27
2017-12-21T06:23:54.260Z,27.17
2017-12-21T06:28:55.802Z,18.33
2017-12-21T06:33:57.330Z,19.50
2017-12-21T06:38:58.874Z,18.57
2017-12-21T06:44:00.492Z,18.60
2017-12-21T06:49:02.871Z,19.10
2017-12-21T06:54:04.414Z,20.07
2017-12-21T06:59:05.948Z,21.10
2017-12-21T07:04:07.521Z,21.37
2017-12-21T07:09:09.077Z,21.83
2017-12-21T07:14:10.613Z,23.03
2017-12-21T07:19:12.897Z,20.33
2017-12-21T07:24:15.201Z,19.43
2017-12-21T07:29:17.426Z,20.17
2017-12-21T07:34:18.974Z,21.43
2017-12-21T07:39:20.471Z,22.00
2017-12-21T07:44:22.111Z,19.30
2017-12-21T07:49:23.613Z,21.57
2017-12-21T07:54:25.154Z,20.27
2017-12-21T07:59:26.738Z,18.73
2017-12-21T08:04:29.092Z,21.40
2017-12-21T08:09:30.641Z,26.00
2017-12-21T08:14:32.948Z,18.97
2017-12-21T08:19:34.469Z,21.00
2017-12-21T08:24:35.993Z,19.70
2017-12-21T08:29:37.514Z,20.07
2017-12-21T08:34:39.852Z,19.60
2017-12-21T08:39:41.389Z,18.30
2017-12-21T08:44:42.912Z,18.90
2017-12-21T08:49:44.398Z,17.77
2017-12-21T08:54:46.662Z,18.00
2017-12-21T08:59:48.102Z,19.40
2017-12-21T09:04:49.662Z,15.77
2017-12-21T09:09:51.227Z,15.57
2017-12-21T09:14:52.698Z,16.90
2017-12-21T09:19:54.126Z,15.43
2017-12-21T09:24:56.402Z,15.87
2017-12-21T09:29:59.101Z,15.67
2017-12-21T09:35:01.371Z,15.70
2017-12-21T09:40:02.881Z,15.10
2017-12-21T09:45:04.450Z,13.80
2017-12-21T09:50:05.956Z,13.47
2017-12-21T09:55:07.441Z,13.13
2017-12-21T10:00:08.927Z,12.93
2017-12-21T10:05:11.179Z,13.57
2017-12-21T10:10:13.585Z,12.20
2017-12-21T10:15:15.135Z,12.13
2017-12-21T10:20:16.577Z,12.00
2017-12-21T10:25:18.241Z,14.03
2017-12-21T10:30:19.740Z,13.30
2017-12-21T10:35:21.335Z,10.57
2017-12-21T10:40:23.589Z,11.47
2017-12-21T10:45:25.088Z,11.07
2017-12-21T10:50:27.240Z,11.03
2017-12-21T10:55:28.702Z,11.20
2017-12-21T11:00:30.219Z,10.33
2017-12-21T11:05:31.706Z,9.07
2017-12-21T11:10:33.162Z,10.53
2017-12-21T11:15:34.598Z,11.47
2017-12-21T11:20:36.824Z,10.10
2017-12-21T11:25:38.255Z,10.50
2017-12-21T11:30:39.725Z,11.93
2017-12-21T11:35:41.150Z,11.00
2017-12-21T11:40:42.640Z,11.73
2017-12-21T11:45:44.861Z,10.63
2017-12-21T11:50:46.305Z,12.63
2017-12-21T11:55:47.758Z,12.93
2017-12-21T12:00:50.050Z,9.70
2017-12-21T12:05:51.528Z,10.10
2017-12-21T12:10:52.966Z,10.57
2017-12-21T12:15:55.198Z,11.40
2017-12-21T12:20:56.649Z,11.50
2017-12-21T12:25:58.150Z,12.10
2017-12-21T12:30:59.618Z,11.70
2017-12-21T12:36:01.153Z,14.30
2017-12-21T12:41:02.685Z,12.60
2017-12-21T12:46:04.946Z,12.90
2017-12-21T12:51:06.501Z,11.33
2017-12-21T12:56:08.006Z,11.60
2017-12-21T13:01:10.301Z,12.27
2017-12-21T13:06:11.870Z,12.93
2017-12-21T13:11:13.389Z,12.50
2017-12-21T13:16:15.052Z,12.10
2017-12-21T13:21:16.633Z,12.40
2017-12-21T13:26:18.130Z,10.63
2017-12-21T13:31:20.375Z,10.40
2017-12-21T13:36:21.985Z,10.00
2017-12-21T13:41:24.290Z,9.90
2017-12-21T13:46:25.830Z,12.90
2017-12-21T13:51:28.134Z,10.47
2017-12-21T13:56:29.682Z,10.83
2017-12-21T14:01:31.976Z,10.43
2017-12-21T14:06:34.266Z,10.30
2017-12-21T14:11:36.011Z,13.37
2017-12-21T14:16:37.603Z,9.33
2017-12-21T14:21:39.157Z,8.87
2017-12-21T14:26:40.753Z,9.07
2017-12-21T14:31:42.316Z,13.60
2017-12-21T14:36:43.872Z,8.67
2017-12-21T14:41:45.500Z,8.57
2017-12-21T14:46:46.999Z,8.50
2017-12-21T14:51:49.269Z,9.70
2017-12-21T14:56:50.854Z,11.93
2017-12-21T15:01:53.119Z,12.70
2017-12-21T15:06:54.686Z,13.10
2017-12-21T15:11:56.209Z,13.30
2017-12-21T15:16:57.762Z,15.77
2017-12-21T15:21:59.187Z,14.47
2017-12-21T15:27:00.794Z,17.30
2017-12-21T15:32:02.344Z,14.93
2017-12-21T15:37:04.565Z,17.40
2017-12-21T15:42:06.130Z,15.93
2017-12-21T15:47:07.571Z,16.93
2017-12-21T15:52:09.923Z,15.80
2017-12-21T15:57:11.398Z,15.93
2017-12-21T16:02:12.929Z,16.27
2017-12-21T16:07:14.524Z,14.93
2017-12-21T16:12:16.025Z,13.47
2017-12-21T16:17:18.310Z,15.37
2017-12-21T16:22:20.700Z,18.00
2017-12-21T16:27:22.196Z,14.07
2017-12-21T16:32:23.749Z,13.73
2017-12-21T16:37:25.285Z,14.13
2017-12-21T16:42:26.854Z,14.53
2017-12-21T16:47:28.401Z,18.23
2017-12-21T16:52:30.064Z,14.30
2017-12-21T16:57:31.605Z,14.00
2017-12-21T17:02:33.148Z,14.00
2017-12-21T17:07:34.697Z,14.73
2017-12-21T17:12:36.254Z,15.70
2017-12-21T17:17:37.826Z,14.57
2017-12-21T17:22:39.380Z,15.57
2017-12-21T17:27:40.885Z,16.37
2017-12-21T17:32:43.183Z,16.30
2017-12-21T17:37:44.911Z,17.33
2017-12-21T17:42:46.454Z,16.37
2017-12-21T17:47:48.154Z,22.40
2017-12-21T17:52:49.785Z,21.57
2017-12-21T17:57:51.302Z,19.80
2017-12-21T18:02:52.865Z,20.97
2017-12-21T18:07:54.435Z,23.73
2017-12-21T18:12:56.003Z,19.70
2017-12-21T18:17:57.517Z,21.57
2017-12-21T18:22:59.068Z,24.13
2017-12-21T18:28:00.632Z,19.33
2017-12-21T18:33:02.152Z,22.00
2017-12-21T18:38:03.677Z,22.70
2017-12-21T18:43:05.246Z,23.83
2017-12-21T18:48:07.821Z,22.60
2017-12-21T18:53:09.360Z,21.77
2017-12-21T18:58:10.819Z,21.10
2017-12-21T19:03:12.321Z,20.60
2017-12-21T19:08:13.846Z,23.03
2017-12-21T19:13:15.416Z,21.20
2017-12-21T19:18:16.987Z,30.47
2017-12-21T19:23:18.522Z,20.10
2017-12-21T19:28:20.089Z,21.53
2017-12-21T19:33:21.582Z,21.07
2017-12-21T19:38:23.071Z,21.13
2017-12-21T19:43:24.560Z,22.00
2017-12-21T19:48:26.820Z,21.23
2017-12-21T19:53:28.484Z,22.50
2017-12-21T19:58:30.098Z,20.70
2017-12-21T20:03:31.605Z,19.50
2017-12-21T20:08:33.114Z,19.63
2017-12-21T20:13:34.672Z,20.70
2017-12-21T20:18:37.031Z,20.97
2017-12-21T20:23:38.600Z,21.07
2017-12-21T20:28:40.191Z,20.57
2017-12-21T20:33:41.728Z,34.50
2017-12-21T20:38:43.194Z,21.33
2017-12-21T20:43:44.708Z,20.07
2017-12-21T20:48:46.911Z,19.47
2017-12-21T20:53:48.497Z,21.50
2017-12-21T20:58:50.038Z,22.83
2017-12-21T21:03:51.688Z,21.07
2017-12-21T21:08:53.242Z,23.03
2017-12-21T21:13:54.855Z,21.63
2017-12-21T21:18:56.426Z,21.67
2017-12-21T21:23:57.992Z,24.97
2017-12-21T21:28:59.567Z,20.87
2017-12-21T21:34:01.118Z,30.40
2017-12-21T21:39:02.647Z,21.10
2017-12-21T21:44:04.106Z,21.57
2017-12-21T21:49:05.666Z,19.50
2017-12-21T21:54:07.167Z,20.20
2017-12-21T21:59:09.466Z,21.17
2017-12-21T22:04:11.763Z,22.97
2017-12-21T22:09:13.299Z,20.40
2017-12-21T22:14:15.564Z,21.47
2017-12-21T22:19:17.102Z,21.07
2017-12-21T22:24:25.608Z,22.00
2017-12-21T22:29:27.224Z,19.80
2017-12-21T22:34:28.802Z,20.30
2017-12-21T22:39:30.389Z,19.77
2017-12-21T22:44:31.939Z,19.20
2017-12-21T22:49:33.516Z,19.73
2017-12-21T22:54:35.078Z,19.60
2017-12-21T22:59:36.670Z,17.53
2017-12-21T23:04:39.000Z,19.20
2017-12-21T23:09:40.506Z,18.73
2017-12-21T23:14:42.033Z,20.40
2017-12-21T23:19:43.593Z,20.43
2017-12-21T23:24:45.145Z,16.50
2017-12-21T23:29:46.664Z,17.13
2017-12-21T23:34:48.169Z,17.37
2017-12-21T23:39:50.404Z,17.57
2017-12-21T23:44:51.940Z,18.00
2017-12-21T23:49:53.489Z,19.00
2017-12-21T23:54:55.762Z,19.73
2017-12-21T23:59:58.038Z,19.77
